sensor_id;sensor_type;location;lat;lon;timestamp;P1;durP1;ratioP1;P2;durP2;ratioP2
13263;SDS011;6700;51.988;7.646;2023-07-24T00:01:55;7.27;;;6.57;;
13263;SDS011;6700;51.988;7.646;2023-07-24T00:04:22;7.83;;;7.03;;
13263;SDS011;6700;51.988;7.646;2023-07-24T00:06:49;7.20;;;6.30;;
13263;SDS011;6700;51.988;7.646;2023-07-24T00:09:16;12.23;;;6.77;;
13263;SDS011;6700;51.988;7.646;2023-07-24T00:11:43;7.27;;;6.13;;
13263;SDS011;6700;51.988;7.646;2023-07-24T00:14:10;7.17;;;6.53;;
13263;SDS011;6700;51.988;7.646;2023-07-24T00:16:38;8.00;;;6.57;;
13263;SDS011;6700;51.988;7.646;2023-07-24T00:19:05;10.37;;;7.40;;
13263;SDS011;6700;51.988;7.646;2023-07-24T00:21:32;7.07;;;6.47;;
13263;SDS011;6700;51.988;7.646;2023-07-24T00:23:59;6.77;;;6.13;;
13263;SDS011;6700;51.988;7.646;2023-07-24T00:26:26;7.43;;;6.83;;
13263;SDS011;6700;51.988;7.646;2023-07-24T00:28:54;7.30;;;6.60;;
13263;SDS011;6700;51.988;7.646;2023-07-24T00:31:21;7.13;;;6.43;;
13263;SDS011;6700;51.988;7.646;2023-07-24T00:33:49;8.43;;;7.00;;
13263;SDS011;6700;51.988;7.646;2023-07-24T00:36:16;9.53;;;6.93;;
13263;SDS011;6700;51.988;7.646;2023-07-24T00:38:43;8.87;;;6.73;;
13263;SDS011;6700;51.988;7.646;2023-07-24T00:41:10;7.60;;;6.80;;
13263;SDS011;6700;51.988;7.646;2023-07-24T00:43:37;8.43;;;6.50;;
13263;SDS011;6700;51.988;7.646;2023-07-24T00:46:04;7.83;;;6.80;;
13263;SDS011;6700;51.988;7.646;2023-07-24T00:48:32;9.13;;;6.70;;
13263;SDS011;6700;51.988;7.646;2023-07-24T00:50:59;6.97;;;6.37;;
13263;SDS011;6700;51.988;7.646;2023-07-24T00:53:26;7.60;;;5.97;;
13263;SDS011;6700;51.988;7.646;2023-07-24T00:55:53;8.87;;;6.50;;
13263;SDS011;6700;51.988;7.646;2023-07-24T00:58:21;7.37;;;6.30;;
13263;SDS011;6700;51.988;7.646;2023-07-24T01:00:48;6.93;;;5.83;;
13263;SDS011;6700;51.988;7.646;2023-07-24T01:03:17;9.50;;;5.47;;
13263;SDS011;6700;51.988;7.646;2023-07-24T01:05:44;7.67;;;6.00;;
13263;SDS011;6700;51.988;7.646;2023-07-24T01:08:11;6.50;;;5.53;;
13263;SDS011;6700;51.988;7.646;2023-07-24T01:10:38;5.97;;;5.17;;
13263;SDS011;6700;51.988;7.646;2023-07-24T01:13:07;6.10;;;5.27;;
13263;SDS011;6700;51.988;7.646;2023-07-24T01:15:42;7.97;;;6.03;;
13263;SDS011;6700;51.988;7.646;2023-07-24T01:18:12;7.03;;;4.63;;
13263;SDS011;6700;51.988;7.646;2023-07-24T01:20:43;5.60;;;4.70;;
13263;SDS011;6700;51.988;7.646;2023-07-24T01:25:53;5.20;;;4.70;;
13263;SDS011;6700;51.988;7.646;2023-07-24T01:28:21;5.20;;;4.17;;
13263;SDS011;6700;51.988;7.646;2023-07-24T01:30:48;5.80;;;4.17;;
13263;SDS011;6700;51.988;7.646;2023-07-24T01:33:15;4.80;;;4.30;;
13263;SDS011;6700;51.988;7.646;2023-07-24T01:35:42;5.43;;;4.43;;
13263;SDS011;6700;51.988;7.646;2023-07-24T01:38:11;4.47;;;3.77;;
13263;SDS011;6700;51.988;7.646;2023-07-24T01:40:40;4.67;;;4.00;;
13263;SDS011;6700;51.988;7.646;2023-07-24T01:43:08;5.73;;;4.30;;
13263;SDS011;6700;51.988;7.646;2023-07-24T01:45:35;7.30;;;4.40;;
13263;SDS011;6700;51.988;7.646;2023-07-24T01:48:05;6.30;;;4.67;;
13263;SDS011;6700;51.988;7.646;2023-07-24T01:50:32;4.53;;;4.10;;
13263;SDS011;6700;51.988;7.646;2023-07-24T01:53:00;8.93;;;3.90;;
13263;SDS011;6700;51.988;7.646;2023-07-24T01:55:27;5.87;;;4.30;;
13263;SDS011;6700;51.988;7.646;2023-07-24T01:57:54;7.67;;;4.10;;
13263;SDS011;6700;51.988;7.646;2023-07-24T02:00:21;6.73;;;4.37;;
13263;SDS011;6700;51.988;7.646;2023-07-24T02:02:48;6.43;;;5.00;;
13263;SDS011;6700;51.988;7.646;2023-07-24T02:05:15;6.77;;;4.83;;
13263;SDS011;6700;51.988;7.646;2023-07-24T02:07:43;5.37;;;4.43;;
13263;SDS011;6700;51.988;7.646;2023-07-24T02:10:10;5.77;;;4.50;;
13263;SDS011;6700;51.988;7.646;2023-07-24T02:12:37;6.10;;;4.80;;
13263;SDS011;6700;51.988;7.646;2023-07-24T02:15:04;4.73;;;4.30;;
13263;SDS011;6700;51.988;7.646;2023-07-24T02:17:31;4.40;;;4.00;;
13263;SDS011;6700;51.988;7.646;2023-07-24T02:19:59;4.70;;;4.20;;
13263;SDS011;6700;51.988;7.646;2023-07-24T02:22:26;8.50;;;4.30;;
13263;SDS011;6700;51.988;7.646;2023-07-24T02:24:53;7.10;;;4.27;;
13263;SDS011;6700;51.988;7.646;2023-07-24T02:27:27;6.40;;;4.70;;
13263;SDS011;6700;51.988;7.646;2023-07-24T02:29:54;6.40;;;4.20;;
13263;SDS011;6700;51.988;7.646;2023-07-24T02:32:22;4.83;;;3.67;;
13263;SDS011;6700;51.988;7.646;2023-07-24T02:34:49;5.47;;;4.40;;
13263;SDS011;6700;51.988;7.646;2023-07-24T02:37:17;7.30;;;3.90;;
13263;SDS011;6700;51.988;7.646;2023-07-24T02:39:44;5.13;;;3.60;;
13263;SDS011;6700;51.988;7.646;2023-07-24T02:42:11;5.63;;;4.30;;
13263;SDS011;6700;51.988;7.646;2023-07-24T02:44:38;4.87;;;4.20;;
13263;SDS011;6700;51.988;7.646;2023-07-24T02:47:05;5.73;;;3.60;;
13263;SDS011;6700;51.988;7.646;2023-07-24T02:49:32;4.10;;;3.60;;
13263;SDS011;6700;51.988;7.646;2023-07-24T02:52:00;5.27;;;4.07;;
13263;SDS011;6700;51.988;7.646;2023-07-24T02:54:27;3.97;;;3.57;;
13263;SDS011;6700;51.988;7.646;2023-07-24T02:56:54;7.87;;;5.03;;
13263;SDS011;6700;51.988;7.646;2023-07-24T02:59:22;5.07;;;3.90;;
13263;SDS011;6700;51.988;7.646;2023-07-24T03:01:49;4.73;;;4.20;;
13263;SDS011;6700;51.988;7.646;2023-07-24T03:04:16;4.57;;;3.97;;
13263;SDS011;6700;51.988;7.646;2023-07-24T03:06:43;6.87;;;4.13;;
13263;SDS011;6700;51.988;7.646;2023-07-24T03:09:10;6.13;;;4.00;;
13263;SDS011;6700;51.988;7.646;2023-07-24T03:11:37;6.13;;;4.07;;
13263;SDS011;6700;51.988;7.646;2023-07-24T03:14:04;7.80;;;4.20;;
13263;SDS011;6700;51.988;7.646;2023-07-24T03:16:32;5.50;;;4.20;;
13263;SDS011;6700;51.988;7.646;2023-07-24T03:18:59;4.03;;;3.63;;
13263;SDS011;6700;51.988;7.646;2023-07-24T03:21:26;5.77;;;4.37;;
13263;SDS011;6700;51.988;7.646;2023-07-24T03:23:53;6.90;;;4.33;;
13263;SDS011;6700;51.988;7.646;2023-07-24T03:26:20;7.47;;;3.73;;
13263;SDS011;6700;51.988;7.646;2023-07-24T03:28:47;6.63;;;4.13;;
13263;SDS011;6700;51.988;7.646;2023-07-24T03:31:15;5.10;;;3.77;;
13263;SDS011;6700;51.988;7.646;2023-07-24T03:33:42;4.67;;;4.10;;
13263;SDS011;6700;51.988;7.646;2023-07-24T03:36:09;5.73;;;3.97;;
13263;SDS011;6700;51.988;7.646;2023-07-24T03:38:36;5.37;;;4.10;;
13263;SDS011;6700;51.988;7.646;2023-07-24T03:41:03;4.80;;;4.30;;
13263;SDS011;6700;51.988;7.646;2023-07-24T03:43:30;5.67;;;3.77;;
13263;SDS011;6700;51.988;7.646;2023-07-24T03:45:58;7.37;;;4.10;;
13263;SDS011;6700;51.988;7.646;2023-07-24T03:48:25;7.43;;;4.10;;
13263;SDS011;6700;51.988;7.646;2023-07-24T03:50:57;6.07;;;4.43;;
13263;SDS011;6700;51.988;7.646;2023-07-24T03:53:25;5.00;;;4.27;;
13263;SDS011;6700;51.988;7.646;2023-07-24T03:55:53;5.27;;;4.30;;
13263;SDS011;6700;51.988;7.646;2023-07-24T03:58:20;4.33;;;3.40;;
13263;SDS011;6700;51.988;7.646;2023-07-24T04:00:47;9.03;;;4.23;;
13263;SDS011;6700;51.988;7.646;2023-07-24T04:03:15;7.80;;;4.30;;
13263;SDS011;6700;51.988;7.646;2023-07-24T04:05:42;5.13;;;4.27;;
13263;SDS011;6700;51.988;7.646;2023-07-24T04:08:10;7.70;;;4.50;;
13263;SDS011;6700;51.988;7.646;2023-07-24T04:10:37;4.50;;;4.10;;
13263;SDS011;6700;51.988;7.646;2023-07-24T04:13:04;7.03;;;4.87;;
13263;SDS011;6700;51.988;7.646;2023-07-24T04:15:31;4.83;;;4.40;;
13263;SDS011;6700;51.988;7.646;2023-07-24T04:17:58;7.63;;;4.40;;
13263;SDS011;6700;51.988;7.646;2023-07-24T04:20:26;5.83;;;4.57;;
13263;SDS011;6700;51.988;7.646;2023-07-24T04:22:53;6.87;;;4.60;;
13263;SDS011;6700;51.988;7.646;2023-07-24T04:25:20;6.90;;;4.47;;
13263;SDS011;6700;51.988;7.646;2023-07-24T04:27:47;5.50;;;4.67;;
13263;SDS011;6700;51.988;7.646;2023-07-24T04:30:14;5.00;;;4.50;;
13263;SDS011;6700;51.988;7.646;2023-07-24T04:32:42;6.93;;;5.27;;
13263;SDS011;6700;51.988;7.646;2023-07-24T04:35:09;6.83;;;5.13;;
13263;SDS011;6700;51.988;7.646;2023-07-24T04:37:36;8.13;;;5.00;;
13263;SDS011;6700;51.988;7.646;2023-07-24T04:40:04;8.33;;;4.80;;
13263;SDS011;6700;51.988;7.646;2023-07-24T04:42:31;8.80;;;5.60;;
13263;SDS011;6700;51.988;7.646;2023-07-24T04:44:58;8.43;;;5.73;;
13263;SDS011;6700;51.988;7.646;2023-07-24T04:47:26;8.07;;;5.27;;
13263;SDS011;6700;51.988;7.646;2023-07-24T04:49:53;6.63;;;5.07;;
13263;SDS011;6700;51.988;7.646;2023-07-24T04:52:21;8.53;;;5.30;;
13263;SDS011;6700;51.988;7.646;2023-07-24T04:54:48;5.83;;;5.10;;
13263;SDS011;6700;51.988;7.646;2023-07-24T04:57:15;8.90;;;4.73;;
13263;SDS011;6700;51.988;7.646;2023-07-24T04:59:42;8.50;;;5.57;;
13263;SDS011;6700;51.988;7.646;2023-07-24T05:02:10;5.43;;;4.93;;
13263;SDS011;6700;51.988;7.646;2023-07-24T05:04:37;6.17;;;4.57;;
13263;SDS011;6700;51.988;7.646;2023-07-24T05:07:04;7.47;;;5.17;;
13263;SDS011;6700;51.988;7.646;2023-07-24T05:09:31;8.83;;;5.27;;
13263;SDS011;6700;51.988;7.646;2023-07-24T05:11:58;8.43;;;5.03;;
13263;SDS011;6700;51.988;7.646;2023-07-24T05:14:25;8.13;;;5.20;;
13263;SDS011;6700;51.988;7.646;2023-07-24T05:16:53;9.97;;;4.93;;
13263;SDS011;6700;51.988;7.646;2023-07-24T05:19:20;5.87;;;5.10;;
13263;SDS011;6700;51.988;7.646;2023-07-24T05:21:47;8.80;;;5.70;;
13263;SDS011;6700;51.988;7.646;2023-07-24T05:24:14;6.40;;;5.03;;
13263;SDS011;6700;51.988;7.646;2023-07-24T05:26:41;6.43;;;5.10;;
13263;SDS011;6700;51.988;7.646;2023-07-24T05:29:08;7.10;;;5.13;;
13263;SDS011;6700;51.988;7.646;2023-07-24T05:31:36;13.23;;;6.07;;
13263;SDS011;6700;51.988;7.646;2023-07-24T05:34:03;9.73;;;5.20;;
13263;SDS011;6700;51.988;7.646;2023-07-24T05:36:31;6.03;;;4.90;;
13263;SDS011;6700;51.988;7.646;2023-07-24T05:38:58;8.27;;;5.87;;
13263;SDS011;6700;51.988;7.646;2023-07-24T05:41:25;5.03;;;4.53;;
13263;SDS011;6700;51.988;7.646;2023-07-24T05:43:52;5.37;;;4.87;;
13263;SDS011;6700;51.988;7.646;2023-07-24T05:46:21;5.63;;;4.67;;
13263;SDS011;6700;51.988;7.646;2023-07-24T05:48:48;5.53;;;5.00;;
13263;SDS011;6700;51.988;7.646;2023-07-24T05:51:16;7.23;;;5.00;;
13263;SDS011;6700;51.988;7.646;2023-07-24T05:53:43;9.57;;;5.13;;
13263;SDS011;6700;51.988;7.646;2023-07-24T05:56:10;5.53;;;4.93;;
13263;SDS011;6700;51.988;7.646;2023-07-24T05:58:37;7.20;;;5.20;;
13263;SDS011;6700;51.988;7.646;2023-07-24T06:01:04;6.27;;;5.67;;
13263;SDS011;6700;51.988;7.646;2023-07-24T06:03:34;6.17;;;5.57;;
13263;SDS011;6700;51.988;7.646;2023-07-24T06:06:01;6.23;;;5.60;;
13263;SDS011;6700;51.988;7.646;2023-07-24T06:08:29;6.90;;;5.93;;
13263;SDS011;6700;51.988;7.646;2023-07-24T06:10:56;8.97;;;6.23;;
13263;SDS011;6700;51.988;7.646;2023-07-24T06:13:23;6.97;;;5.90;;
13263;SDS011;6700;51.988;7.646;2023-07-24T06:15:51;7.73;;;5.70;;
13263;SDS011;6700;51.988;7.646;2023-07-24T06:18:19;6.47;;;5.77;;
13263;SDS011;6700;51.988;7.646;2023-07-24T06:20:46;9.40;;;5.53;;
13263;SDS011;6700;51.988;7.646;2023-07-24T06:23:16;7.00;;;6.33;;
13263;SDS011;6700;51.988;7.646;2023-07-24T06:25:43;6.80;;;6.10;;
13263;SDS011;6700;51.988;7.646;2023-07-24T06:28:10;8.67;;;6.23;;
13263;SDS011;6700;51.988;7.646;2023-07-24T06:30:40;6.83;;;5.43;;
13263;SDS011;6700;51.988;7.646;2023-07-24T06:33:07;7.17;;;6.43;;
13263;SDS011;6700;51.988;7.646;2023-07-24T06:35:34;8.13;;;6.23;;
13263;SDS011;6700;51.988;7.646;2023-07-24T06:38:02;6.87;;;6.27;;
13263;SDS011;6700;51.988;7.646;2023-07-24T06:40:29;7.03;;;6.40;;
13263;SDS011;6700;51.988;7.646;2023-07-24T06:42:56;8.17;;;6.43;;
13263;SDS011;6700;51.988;7.646;2023-07-24T06:45:23;9.67;;;7.63;;
13263;SDS011;6700;51.988;7.646;2023-07-24T06:47:50;8.00;;;7.20;;
13263;SDS011;6700;51.988;7.646;2023-07-24T06:50:17;8.30;;;7.60;;
13263;SDS011;6700;51.988;7.646;2023-07-24T06:52:45;8.20;;;7.40;;
13263;SDS011;6700;51.988;7.646;2023-07-24T06:55:12;9.87;;;8.50;;
13263;SDS011;6700;51.988;7.646;2023-07-24T06:57:39;8.37;;;7.57;;
13263;SDS011;6700;51.988;7.646;2023-07-24T07:00:06;7.80;;;7.07;;
13263;SDS011;6700;51.988;7.646;2023-07-24T07:02:38;8.57;;;7.67;;
13263;SDS011;6700;51.988;7.646;2023-07-24T07:05:05;8.00;;;7.30;;
13263;SDS011;6700;51.988;7.646;2023-07-24T07:07:32;8.00;;;7.30;;
13263;SDS011;6700;51.988;7.646;2023-07-24T07:09:59;9.57;;;7.53;;
13263;SDS011;6700;51.988;7.646;2023-07-24T07:12:27;8.43;;;7.60;;
13263;SDS011;6700;51.988;7.646;2023-07-24T07:14:54;8.17;;;7.47;;
13263;SDS011;6700;51.988;7.646;2023-07-24T07:17:21;8.27;;;7.30;;
13263;SDS011;6700;51.988;7.646;2023-07-24T07:19:48;10.87;;;7.93;;
13263;SDS011;6700;51.988;7.646;2023-07-24T07:22:16;7.50;;;6.90;;
13263;SDS011;6700;51.988;7.646;2023-07-24T07:24:43;9.00;;;8.20;;
13263;SDS011;6700;51.988;7.646;2023-07-24T07:27:12;8.87;;;6.73;;
13263;SDS011;6700;51.988;7.646;2023-07-24T07:29:39;7.20;;;6.60;;
13263;SDS011;6700;51.988;7.646;2023-07-24T07:32:07;7.73;;;6.67;;
13263;SDS011;6700;51.988;7.646;2023-07-24T07:34:34;10.60;;;6.60;;
13263;SDS011;6700;51.988;7.646;2023-07-24T07:37:02;7.10;;;6.40;;
13263;SDS011;6700;51.988;7.646;2023-07-24T07:39:30;7.60;;;6.83;;
13263;SDS011;6700;51.988;7.646;2023-07-24T07:41:57;6.90;;;6.27;;
13263;SDS011;6700;51.988;7.646;2023-07-24T07:44:42;6.93;;;6.23;;
13263;SDS011;6700;51.988;7.646;2023-07-24T07:47:09;7.07;;;5.70;;
13263;SDS011;6700;51.988;7.646;2023-07-24T07:49:36;6.20;;;5.40;;
13263;SDS011;6700;51.988;7.646;2023-07-24T07:52:04;4.97;;;4.50;;
13263;SDS011;6700;51.988;7.646;2023-07-24T07:54:31;4.70;;;4.23;;
13263;SDS011;6700;51.988;7.646;2023-07-24T07:56:59;4.13;;;3.70;;
13263;SDS011;6700;51.988;7.646;2023-07-24T07:59:27;7.27;;;4.17;;
13263;SDS011;6700;51.988;7.646;2023-07-24T08:01:54;3.70;;;3.40;;
13263;SDS011;6700;51.988;7.646;2023-07-24T08:04:21;3.20;;;3.00;;
13263;SDS011;6700;51.988;7.646;2023-07-24T08:06:48;3.63;;;2.97;;
13263;SDS011;6700;51.988;7.646;2023-07-24T08:09:15;3.10;;;2.80;;
13263;SDS011;6700;51.988;7.646;2023-07-24T08:11:43;5.47;;;3.10;;
13263;SDS011;6700;51.988;7.646;2023-07-24T08:14:10;3.27;;;2.80;;
13263;SDS011;6700;51.988;7.646;2023-07-24T08:16:38;2.97;;;2.67;;
13263;SDS011;6700;51.988;7.646;2023-07-24T08:19:05;2.50;;;2.30;;
13263;SDS011;6700;51.988;7.646;2023-07-24T08:21:32;2.87;;;2.50;;
13263;SDS011;6700;51.988;7.646;2023-07-24T08:24:00;3.37;;;2.40;;
13263;SDS011;6700;51.988;7.646;2023-07-24T08:26:28;2.90;;;2.63;;
13263;SDS011;6700;51.988;7.646;2023-07-24T08:28:56;2.33;;;2.13;;
13263;SDS011;6700;51.988;7.646;2023-07-24T08:31:23;2.70;;;2.50;;
13263;SDS011;6700;51.988;7.646;2023-07-24T08:33:50;2.80;;;2.60;;
13263;SDS011;6700;51.988;7.646;2023-07-24T08:36:18;2.60;;;2.40;;
13263;SDS011;6700;51.988;7.646;2023-07-24T08:38:45;2.92;;;2.30;;
13263;SDS011;6700;51.988;7.646;2023-07-24T08:41:13;3.90;;;2.22;;
13263;SDS011;6700;51.988;7.646;2023-07-24T08:43:41;4.25;;;2.67;;
13263;SDS011;6700;51.988;7.646;2023-07-24T08:46:09;2.33;;;2.13;;
13263;SDS011;6700;51.988;7.646;2023-07-24T08:48:40;3.55;;;2.75;;
13263;SDS011;6700;51.988;7.646;2023-07-24T08:51:08;3.20;;;2.60;;
13263;SDS011;6700;51.988;7.646;2023-07-24T08:53:37;2.38;;;2.17;;
13263;SDS011;6700;51.988;7.646;2023-07-24T08:56:05;2.72;;;2.53;;
13263;SDS011;6700;51.988;7.646;2023-07-24T08:58:33;4.00;;;2.30;;
13263;SDS011;6700;51.988;7.646;2023-07-24T09:01:00;2.75;;;2.47;;
13263;SDS011;6700;51.988;7.646;2023-07-24T09:03:28;2.78;;;2.42;;
13263;SDS011;6700;51.988;7.646;2023-07-24T09:05:56;2.65;;;2.45;;
13263;SDS011;6700;51.988;7.646;2023-07-24T09:08:33;4.47;;;2.05;;
13263;SDS011;6700;51.988;7.646;2023-07-24T09:11:02;2.55;;;2.35;;
13263;SDS011;6700;51.988;7.646;2023-07-24T09:13:29;3.40;;;2.42;;
13263;SDS011;6700;51.988;7.646;2023-07-24T09:15:57;2.33;;;2.13;;
13263;SDS011;6700;51.988;7.646;2023-07-24T09:18:25;2.10;;;2.00;;
13263;SDS011;6700;51.988;7.646;2023-07-24T09:20:52;2.55;;;2.00;;
13263;SDS011;6700;51.988;7.646;2023-07-24T09:23:26;4.72;;;2.50;;
13263;SDS011;6700;51.988;7.646;2023-07-24T09:25:54;2.10;;;2.00;;
13263;SDS011;6700;51.988;7.646;2023-07-24T09:28:21;2.95;;;2.03;;
13263;SDS011;6700;51.988;7.646;2023-07-24T09:30:55;2.40;;;2.20;;
13263;SDS011;6700;51.988;7.646;2023-07-24T09:33:23;2.30;;;2.10;;
13263;SDS011;6700;51.988;7.646;2023-07-24T09:35:56;2.60;;;2.40;;
13263;SDS011;6700;51.988;7.646;2023-07-24T09:38:24;2.53;;;2.25;;
13263;SDS011;6700;51.988;7.646;2023-07-24T09:40:52;2.22;;;2.03;;
13263;SDS011;6700;51.988;7.646;2023-07-24T09:46:04;3.55;;;2.38;;
13263;SDS011;6700;51.988;7.646;2023-07-24T09:48:33;2.60;;;2.40;;
13263;SDS011;6700;51.988;7.646;2023-07-24T09:51:04;4.10;;;2.33;;
13263;SDS011;6700;51.988;7.646;2023-07-24T09:56:05;3.03;;;2.83;;
13263;SDS011;6700;51.988;7.646;2023-07-24T09:58:33;2.45;;;2.25;;
13263;SDS011;6700;51.988;7.646;2023-07-24T10:01:04;5.30;;;2.55;;
13263;SDS011;6700;51.988;7.646;2023-07-24T10:03:33;4.03;;;3.00;;
13263;SDS011;6700;51.988;7.646;2023-07-24T10:06:01;2.75;;;2.55;;
13263;SDS011;6700;51.988;7.646;2023-07-24T10:08:28;3.33;;;2.97;;
13263;SDS011;6700;51.988;7.646;2023-07-24T10:10:56;3.22;;;2.90;;
13263;SDS011;6700;51.988;7.646;2023-07-24T10:13:25;3.00;;;2.80;;
13263;SDS011;6700;51.988;7.646;2023-07-24T10:15:52;3.25;;;3.00;;
13263;SDS011;6700;51.988;7.646;2023-07-24T10:18:25;3.13;;;2.83;;
13263;SDS011;6700;51.988;7.646;2023-07-24T10:21:00;3.80;;;3.47;;
13263;SDS011;6700;51.988;7.646;2023-07-24T10:23:27;4.85;;;3.45;;
13263;SDS011;6700;51.988;7.646;2023-07-24T10:25:54;3.45;;;2.97;;
13263;SDS011;6700;51.988;7.646;2023-07-24T10:28:30;3.00;;;2.70;;
13263;SDS011;6700;51.988;7.646;2023-07-24T10:30:57;3.15;;;2.95;;
13263;SDS011;6700;51.988;7.646;2023-07-24T10:33:24;3.20;;;2.85;;
13263;SDS011;6700;51.988;7.646;2023-07-24T10:36:02;3.28;;;3.00;;
13263;SDS011;6700;51.988;7.646;2023-07-24T10:38:37;3.58;;;2.65;;
13263;SDS011;6700;51.988;7.646;2023-07-24T10:41:06;3.47;;;3.15;;
13263;SDS011;6700;51.988;7.646;2023-07-24T10:46:36;3.47;;;3.08;;
13263;SDS011;6700;51.988;7.646;2023-07-24T10:49:04;3.33;;;3.10;;
13263;SDS011;6700;51.988;7.646;2023-07-24T10:51:31;4.72;;;3.38;;
13263;SDS011;6700;51.988;7.646;2023-07-24T10:54:01;3.20;;;2.90;;
13263;SDS011;6700;51.988;7.646;2023-07-24T10:56:29;4.85;;;2.95;;
13263;SDS011;6700;51.988;7.646;2023-07-24T10:58:56;3.17;;;2.90;;
13263;SDS011;6700;51.988;7.646;2023-07-24T11:01:23;4.07;;;2.65;;
13263;SDS011;6700;51.988;7.646;2023-07-24T11:03:50;3.42;;;3.00;;
13263;SDS011;6700;51.988;7.646;2023-07-24T11:06:18;3.05;;;2.65;;
13263;SDS011;6700;51.988;7.646;2023-07-24T11:08:52;2.90;;;2.70;;
13263;SDS011;6700;51.988;7.646;2023-07-24T11:11:27;3.08;;;2.72;;
13263;SDS011;6700;51.988;7.646;2023-07-24T11:13:55;2.95;;;2.70;;
13263;SDS011;6700;51.988;7.646;2023-07-24T11:16:22;2.90;;;2.70;;
13263;SDS011;6700;51.988;7.646;2023-07-24T11:18:50;3.10;;;2.80;;
13263;SDS011;6700;51.988;7.646;2023-07-24T11:21:20;4.82;;;2.75;;
13263;SDS011;6700;51.988;7.646;2023-07-24T11:23:49;2.60;;;2.28;;
13263;SDS011;6700;51.988;7.646;2023-07-24T11:26:20;4.50;;;2.55;;
13263;SDS011;6700;51.988;7.646;2023-07-24T11:28:48;2.72;;;2.53;;
13263;SDS011;6700;51.988;7.646;2023-07-24T11:31:15;2.70;;;2.50;;
13263;SDS011;6700;51.988;7.646;2023-07-24T11:33:46;3.05;;;2.75;;
13263;SDS011;6700;51.988;7.646;2023-07-24T11:36:14;2.78;;;2.58;;
13263;SDS011;6700;51.988;7.646;2023-07-24T11:38:41;2.97;;;2.67;;
13263;SDS011;6700;51.988;7.646;2023-07-24T11:41:08;3.10;;;2.90;;
13263;SDS011;6700;51.988;7.646;2023-07-24T11:43:35;3.70;;;3.05;;
13263;SDS011;6700;51.988;7.646;2023-07-24T11:46:11;2.88;;;2.63;;
13263;SDS011;6700;51.988;7.646;2023-07-24T11:48:40;3.05;;;2.85;;
13263;SDS011;6700;51.988;7.646;2023-07-24T11:51:08;2.50;;;2.30;;
13263;SDS011;6700;51.988;7.646;2023-07-24T11:53:39;2.80;;;2.50;;
13263;SDS011;6700;51.988;7.646;2023-07-24T11:56:12;3.15;;;2.65;;
13263;SDS011;6700;51.988;7.646;2023-07-24T11:58:40;3.03;;;2.72;;
13263;SDS011;6700;51.988;7.646;2023-07-24T12:01:07;2.97;;;2.78;;
13263;SDS011;6700;51.988;7.646;2023-07-24T12:03:34;2.97;;;2.67;;
13263;SDS011;6700;51.988;7.646;2023-07-24T12:06:02;2.50;;;2.30;;
13263;SDS011;6700;51.988;7.646;2023-07-24T12:08:31;2.80;;;2.60;;
13263;SDS011;6700;51.988;7.646;2023-07-24T12:10:58;2.80;;;2.50;;
13263;SDS011;6700;51.988;7.646;2023-07-24T12:13:26;3.30;;;2.88;;
13263;SDS011;6700;51.988;7.646;2023-07-24T12:15:54;3.53;;;2.60;;
13263;SDS011;6700;51.988;7.646;2023-07-24T12:18:22;3.35;;;3.05;;
13263;SDS011;6700;51.988;7.646;2023-07-24T12:20:49;3.58;;;2.35;;
13263;SDS011;6700;51.988;7.646;2023-07-24T12:23:16;2.92;;;2.60;;
13263;SDS011;6700;51.988;7.646;2023-07-24T12:25:43;3.42;;;3.05;;
13263;SDS011;6700;51.988;7.646;2023-07-24T12:28:10;3.20;;;2.90;;
13263;SDS011;6700;51.988;7.646;2023-07-24T12:30:39;3.22;;;2.92;;
13263;SDS011;6700;51.988;7.646;2023-07-24T12:33:06;3.75;;;3.45;;
13263;SDS011;6700;51.988;7.646;2023-07-24T12:35:33;3.03;;;2.83;;
13263;SDS011;6700;51.988;7.646;2023-07-24T12:38:00;2.78;;;2.40;;
13263;SDS011;6700;51.988;7.646;2023-07-24T12:40:27;3.10;;;2.90;;
13263;SDS011;6700;51.988;7.646;2023-07-24T12:42:54;3.65;;;2.80;;
13263;SDS011;6700;51.988;7.646;2023-07-24T12:45:22;2.92;;;2.72;;
13263;SDS011;6700;51.988;7.646;2023-07-24T12:47:49;3.20;;;2.97;;
13263;SDS011;6700;51.988;7.646;2023-07-24T12:50:16;5.55;;;3.45;;
13263;SDS011;6700;51.988;7.646;2023-07-24T12:52:43;3.13;;;2.83;;
13263;SDS011;6700;51.988;7.646;2023-07-24T12:55:12;8.63;;;4.05;;
13263;SDS011;6700;51.988;7.646;2023-07-24T12:57:39;10.98;;;4.13;;
13263;SDS011;6700;51.988;7.646;2023-07-24T13:00:06;4.47;;;3.58;;
13263;SDS011;6700;51.988;7.646;2023-07-24T13:02:35;4.20;;;3.80;;
13263;SDS011;6700;51.988;7.646;2023-07-24T13:05:02;5.45;;;4.25;;
13263;SDS011;6700;51.988;7.646;2023-07-24T13:07:29;4.85;;;4.43;;
13263;SDS011;6700;51.988;7.646;2023-07-24T13:09:57;6.87;;;4.73;;
13263;SDS011;6700;51.988;7.646;2023-07-24T13:12:24;5.13;;;4.63;;
13263;SDS011;6700;51.988;7.646;2023-07-24T13:14:51;4.18;;;3.83;;
13263;SDS011;6700;51.988;7.646;2023-07-24T13:17:18;3.77;;;3.43;;
13263;SDS011;6700;51.988;7.646;2023-07-24T13:19:46;3.28;;;2.97;;
13263;SDS011;6700;51.988;7.646;2023-07-24T13:22:13;3.00;;;2.72;;
13263;SDS011;6700;51.988;7.646;2023-07-24T13:24:40;2.80;;;2.60;;
13263;SDS011;6700;51.988;7.646;2023-07-24T13:27:07;2.63;;;2.43;;
13263;SDS011;6700;51.988;7.646;2023-07-24T13:29:34;2.78;;;2.33;;
13263;SDS011;6700;51.988;7.646;2023-07-24T13:32:02;2.63;;;2.22;;
13263;SDS011;6700;51.988;7.646;2023-07-24T13:34:29;3.63;;;2.67;;
13263;SDS011;6700;51.988;7.646;2023-07-24T13:36:56;3.03;;;2.80;;
13263;SDS011;6700;51.988;7.646;2023-07-24T13:39:23;2.70;;;2.50;;
13263;SDS011;6700;51.988;7.646;2023-07-24T13:41:50;2.53;;;2.33;;
13263;SDS011;6700;51.988;7.646;2023-07-24T13:44:18;3.20;;;2.90;;
13263;SDS011;6700;51.988;7.646;2023-07-24T13:46:45;2.42;;;2.22;;
13263;SDS011;6700;51.988;7.646;2023-07-24T13:49:12;4.35;;;2.60;;
13263;SDS011;6700;51.988;7.646;2023-07-24T13:51:40;3.40;;;2.58;;
13263;SDS011;6700;51.988;7.646;2023-07-24T13:54:07;3.13;;;2.83;;
13263;SDS011;6700;51.988;7.646;2023-07-24T13:56:34;3.25;;;2.95;;
13263;SDS011;6700;51.988;7.646;2023-07-24T13:59:02;2.97;;;2.78;;
13263;SDS011;6700;51.988;7.646;2023-07-24T14:01:29;3.08;;;2.88;;
13263;SDS011;6700;51.988;7.646;2023-07-24T14:03:57;2.97;;;2.67;;
13263;SDS011;6700;51.988;7.646;2023-07-24T14:06:24;4.13;;;3.05;;
13263;SDS011;6700;51.988;7.646;2023-07-24T14:08:51;4.18;;;3.78;;
13263;SDS011;6700;51.988;7.646;2023-07-24T14:11:19;4.68;;;4.00;;
13263;SDS011;6700;51.988;7.646;2023-07-24T14:13:46;3.72;;;3.42;;
13263;SDS011;6700;51.988;7.646;2023-07-24T14:16:13;3.75;;;3.45;;
13263;SDS011;6700;51.988;7.646;2023-07-24T14:18:40;3.88;;;3.58;;
13263;SDS011;6700;51.988;7.646;2023-07-24T14:21:07;4.10;;;3.80;;
13263;SDS011;6700;51.988;7.646;2023-07-24T14:23:35;4.55;;;3.80;;
13263;SDS011;6700;51.988;7.646;2023-07-24T14:26:02;13.77;;;6.28;;
13263;SDS011;6700;51.988;7.646;2023-07-24T14:28:29;3.97;;;3.67;;
13263;SDS011;6700;51.988;7.646;2023-07-24T14:30:56;4.05;;;3.75;;
13263;SDS011;6700;51.988;7.646;2023-07-24T14:33:23;4.30;;;3.90;;
13263;SDS011;6700;51.988;7.646;2023-07-24T14:35:50;4.32;;;3.92;;
13263;SDS011;6700;51.988;7.646;2023-07-24T14:38:18;4.43;;;4.03;;
13263;SDS011;6700;51.988;7.646;2023-07-24T14:40:45;4.78;;;4.38;;
13263;SDS011;6700;51.988;7.646;2023-07-24T14:43:12;4.88;;;4.38;;
13263;SDS011;6700;51.988;7.646;2023-07-24T14:45:40;4.93;;;4.53;;
13263;SDS011;6700;51.988;7.646;2023-07-24T14:48:07;4.18;;;3.88;;
13263;SDS011;6700;51.988;7.646;2023-07-24T14:50:40;4.50;;;4.13;;
13263;SDS011;6700;51.988;7.646;2023-07-24T14:53:07;4.50;;;4.18;;
13263;SDS011;6700;51.988;7.646;2023-07-24T14:55:35;4.88;;;4.47;;
13263;SDS011;6700;51.988;7.646;2023-07-24T14:58:02;5.10;;;4.63;;
13263;SDS011;6700;51.988;7.646;2023-07-24T15:00:31;6.00;;;4.43;;
13263;SDS011;6700;51.988;7.646;2023-07-24T15:02:58;5.78;;;5.05;;
13263;SDS011;6700;51.988;7.646;2023-07-24T15:05:25;4.90;;;4.50;;
13263;SDS011;6700;51.988;7.646;2023-07-24T15:07:52;4.97;;;4.57;;
13263;SDS011;6700;51.988;7.646;2023-07-24T15:10:20;4.40;;;4.00;;
13263;SDS011;6700;51.988;7.646;2023-07-24T15:12:47;4.00;;;3.70;;
13263;SDS011;6700;51.988;7.646;2023-07-24T15:15:14;4.70;;;4.18;;